sensor_id;sensor_type;location;lat;lon;timestamp;temperature;humidity
75210;DHT22;63796;53.136;14.882;2023-04-12T00:01:13;7.80;99.90
75210;DHT22;63796;53.136;14.882;2023-04-12T00:03:40;7.90;99.90
75210;DHT22;63796;53.136;14.882;2023-04-12T00:06:07;7.90;99.90
75210;DHT22;63796;53.136;14.882;2023-04-12T00:08:36;7.80;99.90
75210;DHT22;63796;53.136;14.882;2023-04-12T00:11:03;7.90;99.90
75210;DHT22;63796;53.136;14.882;2023-04-12T00:13:30;7.90;99.90
75210;DHT22;63796;53.136;14.882;2023-04-12T00:15:58;7.90;99.90
75210;DHT22;63796;53.136;14.882;2023-04-12T00:18:25;7.90;99.90
75210;DHT22;63796;53.136;14.882;2023-04-12T00:20:54;7.90;99.90
75210;DHT22;63796;53.136;14.882;2023-04-12T00:23:22;7.80;99.90
75210;DHT22;63796;53.136;14.882;2023-04-12T00:25:52;7.80;99.90
75210;DHT22;63796;53.136;14.882;2023-04-12T00:28:19;7.70;99.90
75210;DHT22;63796;53.136;14.882;2023-04-12T00:30:46;7.70;99.90
75210;DHT22;63796;53.136;14.882;2023-04-12T00:33:14;7.70;99.90
75210;DHT22;63796;53.136;14.882;2023-04-12T00:35:43;7.70;99.90
75210;DHT22;63796;53.136;14.882;2023-04-12T00:38:11;7.80;99.90
75210;DHT22;63796;53.136;14.882;2023-04-12T00:40:42;7.90;99.90
75210;DHT22;63796;53.136;14.882;2023-04-12T00:43:09;7.90;99.90
75210;DHT22;63796;53.136;14.882;2023-04-12T00:45:41;7.90;99.90
75210;DHT22;63796;53.136;14.882;2023-04-12T00:48:08;7.90;99.90
75210;DHT22;63796;53.136;14.882;2023-04-12T00:50:36;7.90;99.90
75210;DHT22;63796;53.136;14.882;2023-04-12T00:53:07;7.90;99.90
75210;DHT22;63796;53.136;14.882;2023-04-12T00:55:41;7.90;99.90
75210;DHT22;63796;53.136;14.882;2023-04-12T00:58:12;7.90;99.90
75210;DHT22;63796;53.136;14.882;2023-04-12T01:00:40;7.90;99.90
75210;DHT22;63796;53.136;14.882;2023-04-12T01:03:08;7.90;99.90
75210;DHT22;63796;53.136;14.882;2023-04-12T01:05:42;7.70;99.90
75210;DHT22;63796;53.136;14.882;2023-04-12T01:08:27;7.70;99.90
75210;DHT22;63796;53.136;14.882;2023-04-12T01:11:25;7.80;99.90
75210;DHT22;63796;53.136;14.882;2023-04-12T01:14:06;7.70;99.90
75210;DHT22;63796;53.136;14.882;2023-04-12T01:16:41;7.70;99.90
75210;DHT22;63796;53.136;14.882;2023-04-12T01:19:57;7.70;99.90
75210;DHT22;63796;53.136;14.882;2023-04-12T01:27:45;7.60;99.90
75210;DHT22;63796;53.136;14.882;2023-04-12T01:30:16;7.50;99.90
75210;DHT22;63796;53.136;14.882;2023-04-12T01:32:48;7.50;99.90
75210;DHT22;63796;53.136;14.882;2023-04-12T01:35:20;7.40;99.90
75210;DHT22;63796;53.136;14.882;2023-04-12T01:37:50;7.40;99.90
75210;DHT22;63796;53.136;14.882;2023-04-12T01:40:18;7.20;99.90
75210;DHT22;63796;53.136;14.882;2023-04-12T01:42:46;7.10;99.90
75210;DHT22;63796;53.136;14.882;2023-04-12T01:45:13;7.00;99.90
75210;DHT22;63796;53.136;14.882;2023-04-12T01:47:41;6.90;99.90
75210;DHT22;63796;53.136;14.882;2023-04-12T01:52:49;6.70;99.90
75210;DHT22;63796;53.136;14.882;2023-04-12T01:55:23;6.50;99.90
75210;DHT22;63796;53.136;14.882;2023-04-12T01:57:53;6.40;99.90
75210;DHT22;63796;53.136;14.882;2023-04-12T02:00:20;6.40;99.90
75210;DHT22;63796;53.136;14.882;2023-04-12T02:02:49;6.40;99.90
75210;DHT22;63796;53.136;14.882;2023-04-12T02:05:17;6.40;99.90
75210;DHT22;63796;53.136;14.882;2023-04-12T02:07:45;6.30;99.90
75210;DHT22;63796;53.136;14.882;2023-04-12T02:10:13;6.30;99.90
75210;DHT22;63796;53.136;14.882;2023-04-12T02:12:41;6.40;99.90
75210;DHT22;63796;53.136;14.882;2023-04-12T02:15:08;6.30;99.90
75210;DHT22;63796;53.136;14.882;2023-04-12T02:17:36;6.10;99.90
75210;DHT22;63796;53.136;14.882;2023-04-12T02:20:03;6.10;99.90
75210;DHT22;63796;53.136;14.882;2023-04-12T02:22:37;6.10;99.90
75210;DHT22;63796;53.136;14.882;2023-04-12T02:25:05;6.10;99.90
75210;DHT22;63796;53.136;14.882;2023-04-12T02:27:33;6.00;99.90
75210;DHT22;63796;53.136;14.882;2023-04-12T02:30:00;6.00;99.90
75210;DHT22;63796;53.136;14.882;2023-04-12T02:32:27;5.90;99.90
75210;DHT22;63796;53.136;14.882;2023-04-12T02:34:56;5.90;99.90
75210;DHT22;63796;53.136;14.882;2023-04-12T02:37:25;5.90;99.90
75210;DHT22;63796;53.136;14.882;2023-04-12T02:39:53;5.80;99.90
75210;DHT22;63796;53.136;14.882;2023-04-12T02:42:22;5.80;99.90
75210;DHT22;63796;53.136;14.882;2023-04-12T02:44:50;5.70;99.90
75210;DHT22;63796;53.136;14.882;2023-04-12T02:47:18;5.70;99.90
75210;DHT22;63796;53.136;14.882;2023-04-12T02:49:45;5.60;99.90
75210;DHT22;63796;53.136;14.882;2023-04-12T02:52:13;5.60;99.90
75210;DHT22;63796;53.136;14.882;2023-04-12T02:54:40;5.60;99.90
75210;DHT22;63796;53.136;14.882;2023-04-12T02:57:07;5.50;99.90
75210;DHT22;63796;53.136;14.882;2023-04-12T02:59:35;5.50;99.90
75210;DHT22;63796;53.136;14.882;2023-04-12T03:02:02;5.40;99.90
75210;DHT22;63796;53.136;14.882;2023-04-12T03:04:30;5.30;99.90
75210;DHT22;63796;53.136;14.882;2023-04-12T03:06:59;5.20;99.90
75210;DHT22;63796;53.136;14.882;2023-04-12T03:09:26;5.00;99.90
75210;DHT22;63796;53.136;14.882;2023-04-12T03:11:54;5.00;99.90
75210;DHT22;63796;53.136;14.882;2023-04-12T03:14:21;4.90;99.90
75210;DHT22;63796;53.136;14.882;2023-04-12T03:16:48;4.80;99.90
75210;DHT22;63796;53.136;14.882;2023-04-12T03:19:17;4.80;99.90
75210;DHT22;63796;53.136;14.882;2023-04-12T03:21:45;4.70;99.90
75210;DHT22;63796;53.136;14.882;2023-04-12T03:24:12;4.80;99.90
75210;DHT22;63796;53.136;14.882;2023-04-12T03:26:40;4.70;99.90
75210;DHT22;63796;53.136;14.882;2023-04-12T03:29:08;4.60;99.90
75210;DHT22;63796;53.136;14.882;2023-04-12T03:31:37;4.60;99.90
75210;DHT22;63796;53.136;14.882;2023-04-12T03:34:04;4.60;99.90
75210;DHT22;63796;53.136;14.882;2023-04-12T03:36:34;4.60;99.90
75210;DHT22;63796;53.136;14.882;2023-04-12T03:39:02;4.60;99.90
75210;DHT22;63796;53.136;14.882;2023-04-12T03:41:29;4.60;99.90
75210;DHT22;63796;53.136;14.882;2023-04-12T03:43:57;4.60;99.90
75210;DHT22;63796;53.136;14.882;2023-04-12T03:46:24;4.50;99.90
75210;DHT22;63796;53.136;14.882;2023-04-12T03:48:52;4.40;99.90
75210;DHT22;63796;53.136;14.882;2023-04-12T03:51:20;4.20;99.90
75210;DHT22;63796;53.136;14.882;2023-04-12T03:53:48;4.10;99.90
75210;DHT22;63796;53.136;14.882;2023-04-12T03:56:15;4.10;99.90
75210;DHT22;63796;53.136;14.882;2023-04-12T03:58:43;4.20;99.90
75210;DHT22;63796;53.136;14.882;2023-04-12T04:01:10;4.20;99.90
75210;DHT22;63796;53.136;14.882;2023-04-12T04:03:39;4.10;99.90
75210;DHT22;63796;53.136;14.882;2023-04-12T04:06:07;4.10;99.90
75210;DHT22;63796;53.136;14.882;2023-04-12T04:08:35;4.10;99.90
75210;DHT22;63796;53.136;14.882;2023-04-12T04:11:03;4.10;99.90
75210;DHT22;63796;53.136;14.882;2023-04-12T04:13:33;4.10;99.90
75210;DHT22;63796;53.136;14.882;2023-04-12T04:16:04;4.00;99.90
75210;DHT22;63796;53.136;14.882;2023-04-12T04:18:32;3.90;99.90
75210;DHT22;63796;53.136;14.882;2023-04-12T04:21:02;3.90;99.90
75210;DHT22;63796;53.136;14.882;2023-04-12T04:23:30;3.90;99.90
75210;DHT22;63796;53.136;14.882;2023-04-12T04:26:04;3.90;99.90
75210;DHT22;63796;53.136;14.882;2023-04-12T04:28:39;3.90;99.90
75210;DHT22;63796;53.136;14.882;2023-04-12T04:31:16;4.00;99.90
75210;DHT22;63796;53.136;14.882;2023-04-12T04:33:43;4.00;99.90
75210;DHT22;63796;53.136;14.882;2023-04-12T04:36:12;4.00;99.90
75210;DHT22;63796;53.136;14.882;2023-04-12T04:38:41;4.00;99.90
75210;DHT22;63796;53.136;14.882;2023-04-12T04:41:08;4.00;99.90
75210;DHT22;63796;53.136;14.882;2023-04-12T04:43:36;3.90;99.90
75210;DHT22;63796;53.136;14.882;2023-04-12T04:46:05;3.90;99.90
75210;DHT22;63796;53.136;14.882;2023-04-12T04:48:33;3.90;99.90
75210;DHT22;63796;53.136;14.882;2023-04-12T04:51:00;3.90;99.90
75210;DHT22;63796;53.136;14.882;2023-04-12T04:53:28;3.90;99.90
75210;DHT22;63796;53.136;14.882;2023-04-12T04:55:56;4.20;99.90
75210;DHT22;63796;53.136;14.882;2023-04-12T04:58:25;4.30;99.90
75210;DHT22;63796;53.136;14.882;2023-04-12T05:00:56;4.30;99.90
75210;DHT22;63796;53.136;14.882;2023-04-12T05:03:25;4.40;99.90
75210;DHT22;63796;53.136;14.882;2023-04-12T05:05:56;4.40;99.90
75210;DHT22;63796;53.136;14.882;2023-04-12T05:08:24;4.40;99.90
75210;DHT22;63796;53.136;14.882;2023-04-12T05:10:51;4.60;99.90
75210;DHT22;63796;53.136;14.882;2023-04-12T05:13:19;4.90;99.90
75210;DHT22;63796;53.136;14.882;2023-04-12T05:15:48;5.00;99.90
75210;DHT22;63796;53.136;14.882;2023-04-12T05:18:15;5.30;99.90
75210;DHT22;63796;53.136;14.882;2023-04-12T05:20:44;5.50;99.90
75210;DHT22;63796;53.136;14.882;2023-04-12T05:23:11;5.90;99.90
75210;DHT22;63796;53.136;14.882;2023-04-12T05:25:42;6.90;99.90
75210;DHT22;63796;53.136;14.882;2023-04-12T05:28:13;9.00;99.90
75210;DHT22;63796;53.136;14.882;2023-04-12T05:30:42;11.80;99.90
75210;DHT22;63796;53.136;14.882;2023-04-12T05:33:10;12.90;99.90
75210;DHT22;63796;53.136;14.882;2023-04-12T05:35:38;12.00;99.90
75210;DHT22;63796;53.136;14.882;2023-04-12T05:38:05;10.80;99.90
75210;DHT22;63796;53.136;14.882;2023-04-12T05:40:32;9.30;99.90
75210;DHT22;63796;53.136;14.882;2023-04-12T05:43:02;8.40;99.90
75210;DHT22;63796;53.136;14.882;2023-04-12T05:45:29;8.50;99.90
75210;DHT22;63796;53.136;14.882;2023-04-12T05:47:57;11.10;99.90
75210;DHT22;63796;53.136;14.882;2023-04-12T05:50:25;12.00;99.90
75210;DHT22;63796;53.136;14.882;2023-04-12T05:52:53;13.00;99.90
75210;DHT22;63796;53.136;14.882;2023-04-12T05:55:21;11.70;99.90
75210;DHT22;63796;53.136;14.882;2023-04-12T05:57:48;10.40;99.90
75210;DHT22;63796;53.136;14.882;2023-04-12T06:00:18;9.80;99.90
75210;DHT22;63796;53.136;14.882;2023-04-12T06:02:47;9.30;99.90
75210;DHT22;63796;53.136;14.882;2023-04-12T06:05:16;9.10;99.90
75210;DHT22;63796;53.136;14.882;2023-04-12T06:07:44;9.00;99.90
75210;DHT22;63796;53.136;14.882;2023-04-12T06:10:15;8.90;99.90
75210;DHT22;63796;53.136;14.882;2023-04-12T06:12:43;9.00;99.90
75210;DHT22;63796;53.136;14.882;2023-04-12T06:15:11;9.20;99.90
75210;DHT22;63796;53.136;14.882;2023-04-12T06:17:38;9.30;99.90
75210;DHT22;63796;53.136;14.882;2023-04-12T06:20:06;9.50;99.90
75210;DHT22;63796;53.136;14.882;2023-04-12T06:22:35;9.70;99.90
75210;DHT22;63796;53.136;14.882;2023-04-12T06:25:03;9.50;99.90
75210;DHT22;63796;53.136;14.882;2023-04-12T06:27:31;9.60;99.90
75210;DHT22;63796;53.136;14.882;2023-04-12T06:29:59;9.90;99.90
75210;DHT22;63796;53.136;14.882;2023-04-12T06:32:29;10.00;99.90
75210;DHT22;63796;53.136;14.882;2023-04-12T06:34:57;10.10;99.90
75210;DHT22;63796;53.136;14.882;2023-04-12T06:37:24;10.00;99.90
75210;DHT22;63796;53.136;14.882;2023-04-12T06:39:51;9.70;99.90
75210;DHT22;63796;53.136;14.882;2023-04-12T06:42:19;9.70;99.90
75210;DHT22;63796;53.136;14.882;2023-04-12T06:44:46;10.20;99.90
75210;DHT22;63796;53.136;14.882;2023-04-12T06:47:14;10.30;99.90
75210;DHT22;63796;53.136;14.882;2023-04-12T06:49:42;10.10;99.90
75210;DHT22;63796;53.136;14.882;2023-04-12T06:52:09;10.30;99.90
75210;DHT22;63796;53.136;14.882;2023-04-12T06:54:37;10.10;99.90
75210;DHT22;63796;53.136;14.882;2023-04-12T06:57:08;10.40;99.90
75210;DHT22;63796;53.136;14.882;2023-04-12T06:59:39;11.10;99.90
75210;DHT22;63796;53.136;14.882;2023-04-12T07:02:07;11.40;99.90
75210;DHT22;63796;53.136;14.882;2023-04-12T07:04:34;11.30;99.90
75210;DHT22;63796;53.136;14.882;2023-04-12T07:07:02;11.70;99.90
75210;DHT22;63796;53.136;14.882;2023-04-12T07:09:30;12.80;99.90
75210;DHT22;63796;53.136;14.882;2023-04-12T07:11:59;13.20;99.90
75210;DHT22;63796;53.136;14.882;2023-04-12T07:14:27;14.20;99.90
75210;DHT22;63796;53.136;14.882;2023-04-12T07:16:54;15.20;99.90
75210;DHT22;63796;53.136;14.882;2023-04-12T07:19:22;16.10;99.90
75210;DHT22;63796;53.136;14.882;2023-04-12T07:21:50;16.00;99.90
75210;DHT22;63796;53.136;14.882;2023-04-12T07:24:17;17.10;96.00
75210;DHT22;63796;53.136;14.882;2023-04-12T07:26:44;18.50;90.80
75210;DHT22;63796;53.136;14.882;2023-04-12T07:29:12;17.60;92.80
75210;DHT22;63796;53.136;14.882;2023-04-12T07:31:40;17.80;91.00
75210;DHT22;63796;53.136;14.882;2023-04-12T07:34:07;18.80;89.10
75210;DHT22;63796;53.136;14.882;2023-04-12T07:36:35;19.20;84.00
75210;DHT22;63796;53.136;14.882;2023-04-12T07:39:02;20.10;80.80
75210;DHT22;63796;53.136;14.882;2023-04-12T07:41:30;19.20;80.60
75210;DHT22;63796;53.136;14.882;2023-04-12T07:43:57;17.00;92.60
75210;DHT22;63796;53.136;14.882;2023-04-12T07:46:27;17.10;92.20
75210;DHT22;63796;53.136;14.882;2023-04-12T07:48:54;18.40;86.50
75210;DHT22;63796;53.136;14.882;2023-04-12T07:51:22;19.10;82.30
75210;DHT22;63796;53.136;14.882;2023-04-12T07:53:50;15.50;96.40
75210;DHT22;63796;53.136;14.882;2023-04-12T07:56:17;16.70;95.50
75210;DHT22;63796;53.136;14.882;2023-04-12T07:58:44;14.40;99.80
75210;DHT22;63796;53.136;14.882;2023-04-12T08:01:13;13.10;99.90
75210;DHT22;63796;53.136;14.882;2023-04-12T08:03:41;17.20;98.40
75210;DHT22;63796;53.136;14.882;2023-04-12T08:06:09;17.80;91.00
75210;DHT22;63796;53.136;14.882;2023-04-12T08:08:36;16.30;93.80
75210;DHT22;63796;53.136;14.882;2023-04-12T08:11:03;16.10;98.10
75210;DHT22;63796;53.136;14.882;2023-04-12T08:13:32;13.30;99.90
75210;DHT22;63796;53.136;14.882;2023-04-12T08:16:00;14.20;99.90
75210;DHT22;63796;53.136;14.882;2023-04-12T08:18:28;13.80;99.90
75210;DHT22;63796;53.136;14.882;2023-04-12T08:20:56;14.50;99.90
75210;DHT22;63796;53.136;14.882;2023-04-12T08:23:24;14.70;99.90
75210;DHT22;63796;53.136;14.882;2023-04-12T08:25:52;14.40;99.90
75210;DHT22;63796;53.136;14.882;2023-04-12T08:28:28;13.90;99.90
75210;DHT22;63796;53.136;14.882;2023-04-12T08:30:57;13.60;99.90
75210;DHT22;63796;53.136;14.882;2023-04-12T08:33:25;13.40;99.90
75210;DHT22;63796;53.136;14.882;2023-04-12T08:35:53;12.20;99.90
75210;DHT22;63796;53.136;14.882;2023-04-12T08:38:21;12.20;99.90
75210;DHT22;63796;53.136;14.882;2023-04-12T08:41:08;12.90;99.90
75210;DHT22;63796;53.136;14.882;2023-04-12T08:43:36;13.40;99.90
75210;DHT22;63796;53.136;14.882;2023-04-12T08:46:04;13.80;99.90
75210;DHT22;63796;53.136;14.882;2023-04-12T08:48:31;13.20;99.90
75210;DHT22;63796;53.136;14.882;2023-04-12T08:51:00;12.90;99.90
75210;DHT22;63796;53.136;14.882;2023-04-12T08:53:28;12.40;99.90
75210;DHT22;63796;53.136;14.882;2023-04-12T08:55:55;13.20;99.90
75210;DHT22;63796;53.136;14.882;2023-04-12T08:58:22;12.80;99.90
75210;DHT22;63796;53.136;14.882;2023-04-12T09:00:50;12.90;99.90
75210;DHT22;63796;53.136;14.882;2023-04-12T09:03:18;12.40;99.90
75210;DHT22;63796;53.136;14.882;2023-04-12T09:05:46;13.00;99.90
75210;DHT22;63796;53.136;14.882;2023-04-12T09:08:14;12.90;99.90
75210;DHT22;63796;53.136;14.882;2023-04-12T09:10:43;13.10;99.90
75210;DHT22;63796;53.136;14.882;2023-04-12T09:13:10;12.90;99.90
75210;DHT22;63796;53.136;14.882;2023-04-12T09:15:46;13.50;99.90
75210;DHT22;63796;53.136;14.882;2023-04-12T09:18:15;14.10;99.90
75210;DHT22;63796;53.136;14.882;2023-04-12T09:20:43;12.40;99.90
75210;DHT22;63796;53.136;14.882;2023-04-12T09:25:45;11.60;99.90
75210;DHT22;63796;53.136;14.882;2023-04-12T09:28:32;13.90;99.90
75210;DHT22;63796;53.136;14.882;2023-04-12T09:30:59;13.00;99.90
75210;DHT22;63796;53.136;14.882;2023-04-12T09:36:02;13.10;99.90
75210;DHT22;63796;53.136;14.882;2023-04-12T09:38:31;13.40;99.90
75210;DHT22;63796;53.136;14.882;2023-04-12T09:41:14;12.30;99.90
75210;DHT22;63796;53.136;14.882;2023-04-12T09:43:50;13.40;99.90
75210;DHT22;63796;53.136;14.882;2023-04-12T09:46:18;12.50;99.90
75210;DHT22;63796;53.136;14.882;2023-04-12T09:48:49;12.20;99.90
75210;DHT22;63796;53.136;14.882;2023-04-12T09:53:56;19.40;79.90
75210;DHT22;63796;53.136;14.882;2023-04-12T09:56:30;15.40;86.40
75210;DHT22;63796;53.136;14.882;2023-04-12T09:59:02;16.80;89.60
75210;DHT22;63796;53.136;14.882;2023-04-12T10:01:34;19.80;73.60
75210;DHT22;63796;53.136;14.882;2023-04-12T10:04:05;20.70;64.30
75210;DHT22;63796;53.136;14.882;2023-04-12T10:06:35;18.40;75.40
75210;DHT22;63796;53.136;14.882;2023-04-12T10:09:03;20.90;68.70
75210;DHT22;63796;53.136;14.882;2023-04-12T10:11:33;15.80;84.50
75210;DHT22;63796;53.136;14.882;2023-04-12T10:14:01;16.00;89.80
75210;DHT22;63796;53.136;14.882;2023-04-12T10:16:29;16.10;89.20
75210;DHT22;63796;53.136;14.882;2023-04-12T10:19:02;16.90;86.40
75210;DHT22;63796;53.136;14.882;2023-04-12T10:21:30;15.90;87.10
75210;DHT22;63796;53.136;14.882;2023-04-12T10:23:58;19.50;77.30
75210;DHT22;63796;53.136;14.882;2023-04-12T10:26:25;19.00;75.10
75210;DHT22;63796;53.136;14.882;2023-04-12T10:31:56;20.70;69.50
75210;DHT22;63796;53.136;14.882;2023-04-12T10:34:31;19.20;74.50
75210;DHT22;63796;53.136;14.882;2023-04-12T10:36:59;21.40;64.80
75210;DHT22;63796;53.136;14.882;2023-04-12T10:42:24;18.90;73.10
75210;DHT22;63796;53.136;14.882;2023-04-12T10:45:33;16.80;78.20
75210;DHT22;63796;53.136;14.882;2023-04-12T10:55:39;19.10;66.40
75210;DHT22;63796;53.136;14.882;2023-04-12T10:58:09;19.60;67.10
75210;DHT22;63796;53.136;14.882;2023-04-12T11:03:23;21.50;61.40
75210;DHT22;63796;53.136;14.882;2023-04-12T11:06:04;20.80;63.20
75210;DHT22;63796;53.136;14.882;2023-04-12T11:08:59;20.40;62.60
75210;DHT22;63796;53.136;14.882;2023-04-12T11:11:28;18.90;68.50
75210;DHT22;63796;53.136;14.882;2023-04-12T11:14:01;19.70;63.70
75210;DHT22;63796;53.136;14.882;2023-04-12T11:16:28;20.40;62.40
75210;DHT22;63796;53.136;14.882;2023-04-12T11:18:56;17.90;67.60
75210;DHT22;63796;53.136;14.882;2023-04-12T11:21:25;19.00;69.30
75210;DHT22;63796;53.136;14.882;2023-04-12T11:23:52;18.40;66.70
75210;DHT22;63796;53.136;14.882;2023-04-12T11:26:22;17.70;71.80
75210;DHT22;63796;53.136;14.882;2023-04-12T11:28:51;19.70;63.40
75210;DHT22;63796;53.136;14.882;2023-04-12T11:31:19;19.40;64.00
75210;DHT22;63796;53.136;14.882;2023-04-12T11:33:47;21.20;60.80
75210;DHT22;63796;53.136;14.882;2023-04-12T11:36:14;18.40;64.80
75210;DHT22;63796;53.136;14.882;2023-04-12T11:38:43;18.30;66.70
75210;DHT22;63796;53.136;14.882;2023-04-12T11:41:13;20.00;63.90
75210;DHT22;63796;53.136;14.882;2023-04-12T11:43:40;20.20;62.40
75210;DHT22;63796;53.136;14.882;2023-04-12T11:46:08;20.60;60.00
75210;DHT22;63796;53.136;14.882;2023-04-12T11:48:36;21.20;59.80
75210;DHT22;63796;53.136;14.882;2023-04-12T11:51:19;20.80;61.80
75210;DHT22;63796;53.136;14.882;2023-04-12T11:53:51;17.20;70.40
75210;DHT22;63796;53.136;14.882;2023-04-12T11:56:20;18.00;69.70
75210;DHT22;63796;53.136;14.882;2023-04-12T11:58:48;18.80;65.50
75210;DHT22;63796;53.136;14.882;2023-04-12T12:01:19;15.20;75.70
75210;DHT22;63796;53.136;14.882;2023-04-12T12:03:49;14.20;84.10
75210;DHT22;63796;53.136;14.882;2023-04-12T12:06:17;18.30;71.20
75210;DHT22;63796;53.136;14.882;2023-04-12T12:08:47;19.60;66.50
75210;DHT22;63796;53.136;14.882;2023-04-12T12:11:19;18.10;70.10
75210;DHT22;63796;53.136;14.882;2023-04-12T12:13:49;18.50;67.70
75210;DHT22;63796;53.136;14.882;2023-04-12T12:16:22;17.70;67.40
75210;DHT22;63796;53.136;14.882;2023-04-12T12:18:51;16.80;68.90
75210;DHT22;63796;53.136;14.882;2023-04-12T12:21:19;17.20;70.50
75210;DHT22;63796;53.136;14.882;2023-04-12T12:23:47;18.20;66.60
75210;DHT22;63796;53.136;14.882;2023-04-12T12:26:19;17.80;67.90
75210;DHT22;63796;53.136;14.882;2023-04-12T12:28:53;19.10;64.60
75210;DHT22;63796;53.136;14.882;2023-04-12T12:31:22;17.60;69.50
75210;DHT22;63796;53.136;14.882;2023-04-12T12:33:53;14.90;76.50
75210;DHT22;63796;53.136;14.882;2023-04-12T12:36:32;15.00;83.20
75210;DHT22;63796;53.136;14.882;2023-04-12T12:39:08;16.90;70.20
75210;DHT22;63796;53.136;14.882;2023-04-12T12:41:38;17.70;69.70
75210;DHT22;63796;53.136;14.882;2023-04-12T12:44:06;18.40;68.20
75210;DHT22;63796;53.136;14.882;2023-04-12T12:46:34;17.30;72.60
75210;DHT22;63796;53.136;14.882;2023-04-12T12:49:04;18.30;66.20
75210;DHT22;63796;53.136;14.882;2023-04-12T12:51:32;18.10;66.10
75210;DHT22;63796;53.136;14.882;2023-04-12T12:53:59;17.30;68.20
75210;DHT22;63796;53.136;14.882;2023-04-12T12:56:27;15.60;72.30
75210;DHT22;63796;53.136;14.882;2023-04-12T12:58:54;14.90;77.20
75210;DHT22;63796;53.136;14.882;2023-04-12T13:01:22;14.70;76.10
75210;DHT22;63796;53.136;14.882;2023-04-12T13:03:49;15.30;77.00
75210;DHT22;63796;53.136;14.882;2023-04-12T13:06:17;15.60;77.00
75210;DHT22;63796;53.136;14.882;2023-04-12T13:08:45;14.20;78.80
75210;DHT22;63796;53.136;14.882;2023-04-12T13:11:12;14.20;82.60
75210;DHT22;63796;53.136;14.882;2023-04-12T13:13:43;14.50;80.00
75210;DHT22;63796;53.136;14.882;2023-04-12T13:16:10;14.10;78.60
75210;DHT22;63796;53.136;14.882;2023-04-12T13:18:38;13.70;81.30
75210;DHT22;63796;53.136;14.882;2023-04-12T13:21:05;13.70;84.70
75210;DHT22;63796;53.136;14.882;2023-04-12T13:23:33;13.70;81.90
75210;DHT22;63796;53.136;14.882;2023-04-12T13:26:01;13.70;84.90
75210;DHT22;63796;53.136;14.882;2023-04-12T13:28:29;13.80;80.70
75210;DHT22;63796;53.136;14.882;2023-04-12T13:30:56;13.90;82.10
75210;DHT22;63796;53.136;14.882;2023-04-12T13:33:23;14.10;82.20
75210;DHT22;63796;53.136;14.882;2023-04-12T13:35:51;14.30;82.90
75210;DHT22;63796;53.136;14.882;2023-04-12T13:38:18;14.30;76.20
75210;DHT22;63796;53.136;14.882;2023-04-12T13:40:46;15.10;79.70
75210;DHT22;63796;53.136;14.882;2023-04-12T13:43:13;15.90;74.80
75210;DHT22;63796;53.136;14.882;2023-04-12T13:45:41;16.40;75.90
75210;DHT22;63796;53.136;14.882;2023-04-12T13:48:08;15.70;73.50
75210;DHT22;63796;53.136;14.882;2023-04-12T13:50:36;15.20;77.60
75210;DHT22;63796;53.136;14.882;2023-04-12T13:53:03;14.80;78.10
75210;DHT22;63796;53.136;14.882;2023-04-12T13:55:30;14.30;80.50
75210;DHT22;63796;53.136;14.882;2023-04-12T13:57:58;13.80;83.20
75210;DHT22;63796;53.136;14.882;2023-04-12T14:00:25;13.40;83.60
75210;DHT22;63796;53.136;14.882;2023-04-12T14:02:53;13.50;84.60
75210;DHT22;63796;53.136;14.882;2023-04-12T14:05:20;13.80;86.00
75210;DHT22;63796;53.136;14.882;2023-04-12T14:07:48;13.70;83.50
75210;DHT22;63796;53.136;14.882;2023-04-12T14:10:16;13.60;86.20
75210;DHT22;63796;53.136;14.882;2023-04-12T14:12:43;13.50;80.90
75210;DHT22;63796;53.136;14.882;2023-04-12T14:15:11;13.60;84.10
75210;DHT22;63796;53.136;14.882;2023-04-12T14:17:39;13.40;78.90
75210;DHT22;63796;53.136;14.882;2023-04-12T14:20:07;13.60;85.00
75210;DHT22;63796;53.136;14.882;2023-04-12T14:22:38;13.80;81.60
75210;DHT22;63796;53.136;14.882;2023-04-12T14:25:06;13.90;82.60
75210;DHT22;63796;53.136;14.882;2023-04-12T14:27:34;13.60;83.20
75210;DHT22;63796;53.136;14.882;2023-04-12T14:30:03;13.40;80.40
75210;DHT22;63796;53.136;14.882;2023-04-12T14:32:34;13.40;83.30
75210;DHT22;63796;53.136;14.882;2023-04-12T14:35:02;13.30;83.40
75210;DHT22;63796;53.136;14.882;2023-04-12T14:37:30;13.10;83.60
75210;DHT22;63796;53.136;14.882;2023-04-12T14:39:59;13.00;84.90
75210;DHT22;63796;53.136;14.882;2023-04-12T14:42:26;12.90;84.30
75210;DHT22;63796;53.136;14.882;2023-04-12T14:44:53;12.90;85.30
75210;DHT22;63796;53.136;14.882;2023-04-12T14:47:21;13.00;85.30
75210;DHT22;63796;53.136;14.882;2023-04-12T14:49:48;13.00;85.70
75210;DHT22;63796;53.136;14.882;2023-04-12T14:52:16;13.00;85.50
75210;DHT22;63796;53.136;14.882;2023-04-12T14:54:44;13.10;88.10
75210;DHT22;63796;53.136;14.882;2023-04-12T14:57:11;13.00;87.40
75210;DHT22;63796;53.136;14.882;2023-04-12T14:59:39;13.10;88.50
75210;DHT22;63796;53.136;14.882;2023-04-12T15:02:06;13.20;89.10
75210;DHT22;63796;53.136;14.882;2023-04-12T15:04:34;13.10;88.30
75210;DHT22;63796;53.136;14.882;2023-04-12T15:07:01;13.40;91.30
75210;DHT22;63796;53.136;14.882;2023-04-12T15:09:29;13.50;90.70
75210;DHT22;63796;53.136;14.882;2023-04-12T15:11:56;13.50;90.40
75210;DHT22;63796;53.136;14.882;2023-04-12T15:14:27;13.40;87.90
75210;DHT22;63796;53.136;14.882;2023-04-12T15:16:54;13.50;89.70
75210;DHT22;63796;53.136;14.882;2023-04-12T15:19:22;13.40;87.90
75210;DHT22;63796;53.136;14.882;2023-04-12T15:21:50;13.20;90.00
75210;DHT22;63796;53.136;14.882;2023-04-12T15:24:18;13.10;90.60
75210;DHT22;63796;53.136;14.882;2023-04-12T15:26:46;13.30;91.20
75210;DHT22;63796;53.136;14.882;2023-04-12T15:29:14;13.20;88.70
75210;DHT22;63796;53.136;14.882;2023-04-12T15:31:42;13.40;90.30
75210;DHT22;63796;53.136;14.882;2023-04-12T15:34:10;13.60;90.90
75210;DHT22;63796;53.136;14.882;2023-04-12T15:36:39;13.40;87.70
75210;DHT22;63796;53.136;14.882;2023-04-12T15:39:07;13.30;88.90
75210;DHT22;63796;53.136;14.882;2023-04-12T15:41:36;13.10;90.40
75210;DHT22;63796;53.136;14.882;2023-04-12T15:44:08;13.00;91.30
75210;DHT22;63796;53.136;14.882;2023-04-12T15:46:40;13.00;91.50
75210;DHT22;63796;53.136;14.882;2023-04-12T15:49:09;12.80;91.50
75210;DHT22;63796;53.136;14.882;2023-04-12T15:51:36;12.70;90.40
75210;DHT22;63796;53.136;14.882;2023-04-12T15:54:09;12.60;90.00
75210;DHT22;63796;53.136;14.882;2023-04-12T15:56:37;12.50;90.40
75210;DHT22;63796;53.136;14.882;2023-04-12T15:59:05;12.50;90.80
75210;DHT22;63796;53.136;14.882;2023-04-12T16:01:35;12.40;92.20
75210;DHT22;63796;53.136;14.882;2023-04-12T16:04:08;12.40;93.20
75210;DHT22;63796;53.136;14.882;2023-04-12T16:06:36;12.30;93.50